Latest Weather Observations for Perth

IDW60801

Issued at 2:32 pm WST Tuesday 28 April 2015 (issued every 30 minutes, with the page automatically refreshed every 10 minutes)

About weather observations | Map of weather stations | Latest weather observations for WA | Other Formats
Station Details ID: 009225 Name: PERTH METRO Lat: -31.92 Lon: 115.87 Height: 24.9 m
Data from the previous 72 hours. | See also: Recent months at Perth
Date/Time
WST
Temp
°C
App
Temp
°C
Dew
Point
Rel
Hum
%
Delta-T
°C
Wind Press
QNH
hPa
Press
MSL
hPa
Rain
since 9 am
mm
Dir
 
Spd
km/h
Gust
km/h
Spd
kts
Gust
kts
28/02:30pm 24.7 21.7 6.0 30 9.6 NNE 11 19 6 10 1020.2 1020.1 0.0
28/02:00pm 24.9 21.9 6.1 30 9.6 N 11 22 6 12 1020.1 1020.0 0.0
28/01:30pm 25.1 22.1 7.7 33 9.2 NE 13 20 7 11 1020.5 1020.4 0.0
28/01:00pm 24.5 21.4 7.2 33 9.0 NE 13 24 7 13 1020.9 1020.8 0.0
28/12:30pm 23.6 19.7 7.3 35 8.5 NE 17 28 9 15 1021.4 1021.3 0.0
28/12:00pm 23.3 19.4 7.0 35 8.4 NE 17 26 9 14 1021.6 1021.5 0.0
28/11:30am 22.7 18.8 7.3 37 8.0 NE 17 28 9 15 1021.9 1021.8 0.0
28/11:00am 21.4 16.3 6.1 37 7.7 NE 22 33 12 18 1022.2 1022.1 0.0
28/10:30am 21.0 17.0 6.5 39 7.3 NE 17 28 9 15 1022.6 1022.5 0.0
28/10:00am 20.5 15.9 5.7 38 7.3 NE 19 35 10 19 1022.5 1022.4 0.0
28/09:30am 20.4 15.6 5.6 38 7.3 NE 20 30 11 16 1022.6 1022.5 0.0
28/09:00am 19.5 14.8 5.9 41 6.7 NE 20 35 11 19 1022.7 1022.6 0.0
28/08:30am 18.7 14.5 5.5 42 6.4 NE 17 26 9 14 1023.1 1023.0 0.0
28/08:00am 17.6 14.1 5.5 45 5.8 NE 13 26 7 14 1023.0 1022.9 0.0
28/07:30am 15.9 13.0 4.9 48 5.2 NE 9 17 5 9 1023.0 1022.9 0.0
28/07:00am 15.7 12.4 4.7 48 5.1 ENE 11 19 6 10 1022.6 1022.5 0.0
28/06:30am 15.9 12.6 4.6 47 5.3 ENE 11 17 6 9 1022.4 1022.3 0.0
28/06:00am 16.1 12.8 4.5 46 5.4 NE 11 19 6 10 1022.3 1022.2 0.0
28/05:30am 15.5 12.6 4.5 48 5.1 ENE 9 13 5 7 1022.1 1022.0 0.0
28/05:00am 15.6 12.8 5.2 50 4.9 ENE 9 17 5 9 1022.1 1022.0 0.0
28/04:30am 15.7 13.1 6.2 53 4.6 NE 9 15 5 8 1022.0 1021.9 0.0
28/04:00am 15.9 13.6 5.8 51 4.8 NE 7 13 4 7 1021.9 1021.8 0.0
28/03:30am 16.6 13.3 4.6 45 5.7 NE 11 17 6 9 1021.9 1021.8 0.0
28/03:00am 16.9 13.8 5.5 47 5.5 NE 11 17 6 9 1021.9 1021.8 0.0
28/02:30am 17.4 14.5 4.7 43 6.0 NE 9 17 5 9 1022.1 1022.0 0.0
28/02:00am 17.2 14.3 4.9 44 5.8 NE 9 17 5 9 1022.2 1022.1 0.0
28/01:30am 16.6 14.1 4.9 46 5.6 ENE 7 11 4 6 1022.3 1022.2 0.0
28/01:00am 17.2 14.7 4.9 44 5.8 ENE 7 13 4 7 1022.4 1022.3 0.0
28/12:30am 17.8 14.9 4.7 42 6.3 NE 9 15 5 8 1022.7 1022.6 0.0
28/12:00am 18.2 14.9 4.4 40 6.5 ENE 11 19 6 10 1022.8 1022.7 0.0
 
Date/Time
WST
Temp
°C
App
Temp
°C
Dew
Point
Rel
Hum
%
Delta-T
°C
Wind Press
QNH
hPa
Press
MSL
hPa
Rain
since 9 am
mm
Dir
 
Spd
km/h
Gust
km/h
Spd
kts
Gust
kts
27/11:30pm 18.0 15.1 4.6 41 6.4 ESE 9 19 5 10 1023.1 1023.0 0.0
27/11:00pm 17.0 14.8 5.3 46 5.6 NE 6 11 3 6 1023.4 1023.3 0.0
27/10:30pm 18.0 15.7 4.9 42 6.3 ENE 6 13 3 7 1023.5 1023.4 0.0
27/10:00pm 18.9 16.0 4.7 39 6.8 ENE 9 17 5 9 1023.5 1023.4 0.0
27/09:30pm 15.3 13.6 5.8 53 4.6 ESE 4 9 2 5 1023.3 1023.2 0.0
27/09:00pm 15.2 14.5 7.0 58 4.0 CALM 0 6 0 3 1023.2 1023.1 0.0
27/08:30pm 15.7 14.9 6.7 55 4.4 CALM 0 6 0 3 1022.8 1022.7 0.0
27/08:00pm 17.1 16.3 6.3 49 5.3 CALM 0 0 0 0 1022.8 1022.7 0.0
27/07:30pm 18.4 16.3 5.9 44 6.1 ESE 6 7 3 4 1022.8 1022.7 0.0
27/07:00pm 19.2 17.0 5.3 40 6.8 ESE 6 7 3 4 1022.8 1022.7 0.0
27/06:30pm 20.4 18.5 4.8 36 7.6 ESE 4 7 2 4 1022.8 1022.7 0.0
27/06:00pm 22.0 19.5 4.6 32 8.5 ESE 7 15 4 8 1022.4 1022.3 0.0
27/05:30pm 23.2 20.8 5.1 31 9.0 ENE 7 17 4 9 1022.0 1021.9 0.0
27/05:00pm 24.1 20.8 4.5 28 9.7 ENE 11 20 6 11 1022.1 1022.0 0.0
27/04:30pm 24.9 21.6 4.6 27 10.2 ENE 11 20 6 11 1022.1 1022.0 0.0
27/04:00pm 25.4 21.9 5.6 28 10.1 ENE 13 24 7 13 1022.0 1021.9 0.0
27/03:30pm 25.2 21.1 4.3 26 10.4 NE 15 26 8 14 1022.1 1022.0 0.0
27/03:00pm 25.2 21.6 4.9 27 10.2 ENE 13 22 7 12 1022.2 1022.1 0.0
27/02:30pm 24.9 20.5 4.6 27 10.2 NE 17 26 9 14 1022.2 1022.1 0.0
27/02:00pm 24.9 20.7 5.7 29 9.8 NE 17 26 9 14 1022.2 1022.1 0.0
27/01:30pm 25.2 22.0 6.9 31 9.6 ENE 13 24 7 13 1022.6 1022.5 0.0
27/01:00pm 24.2 20.4 6.0 31 9.3 ENE 15 28 8 15 1022.9 1022.8 0.0
27/12:30pm 23.9 20.8 7.1 34 8.8 ENE 13 24 7 13 1023.5 1023.4 0.0
27/12:00pm 23.2 20.0 6.9 35 8.4 ENE 13 22 7 12 1024.0 1023.9 0.0
27/11:30am 22.1 17.6 6.3 36 8.0 NE 19 33 10 18 1024.5 1024.4 0.0
27/11:00am 21.6 17.3 7.1 39 7.4 ENE 19 30 10 16 1025.1 1025.0 0.0
27/10:30am 20.8 16.4 6.4 39 7.3 NE 19 32 10 17 1025.5 1025.4 0.0
27/10:00am 20.0 15.4 6.7 42 6.7 NE 20 35 11 19 1025.5 1025.4 0.0
27/09:30am 19.1 14.8 6.9 45 6.1 NE 19 30 10 16 1025.6 1025.5 0.0
27/09:00am 18.2 14.8 6.1 45 5.9 NE 13 32 7 17 1025.8 1025.7 0.0
27/08:30am 17.1 13.8 6.6 50 5.2 NE 13 22 7 12 1025.8 1025.7 0.0
27/08:00am 16.0 13.5 6.4 53 4.7 ENE 9 15 5 8 1025.6 1025.5 0.0
27/07:30am 13.5 11.3 5.4 58 3.8 ENE 6 11 3 6 1025.4 1025.3 0.0
27/07:00am 13.3 11.0 5.5 59 3.6 E 7 15 4 8 1025.1 1025.0 0.0
27/06:30am 13.5 11.1 5.2 57 3.9 E 7 15 4 8 1024.9 1024.8 0.0
27/06:00am 13.7 11.3 5.3 57 3.9 E 7 13 4 7 1024.6 1024.5 0.0
27/05:30am 14.0 11.2 5.1 55 4.2 ENE 9 15 5 8 1024.4 1024.3 0.0
27/05:00am 14.1 11.2 4.9 54 4.3 ENE 9 15 5 8 1024.3 1024.2 0.0
27/04:30am 14.4 11.7 5.5 55 4.2 ENE 9 20 5 11 1024.0 1023.9 0.0
27/04:00am 14.5 11.3 5.0 53 4.4 ENE 11 19 6 10 1023.9 1023.8 0.0
27/03:30am 14.5 11.7 5.3 54 4.3 ENE 9 17 5 9 1024.0 1023.9 0.0
27/03:00am 14.7 11.5 5.2 53 4.5 ENE 11 20 6 11 1024.0 1023.9 0.0
27/02:30am 13.5 11.2 4.9 56 4.0 ENE 6 13 3 7 1024.1 1024.0 0.0
27/02:00am 11.1 10.0 5.0 66 2.8 CALM 0 7 0 4 1024.2 1024.1 0.0
27/01:30am 10.1 9.0 5.1 71 2.3 CALM 0 7 0 4 1024.3 1024.2 0.0
27/01:00am 10.6 9.7 6.2 74 2.0 CALM 0 0 0 0 1024.3 1024.2 0.0
27/12:30am 10.8 9.8 5.8 71 2.3 CALM 0 4 0 2 1024.2 1024.1 0.0
27/12:00am 11.2 9.8 5.7 69 2.5 NE 2 9 1 5 1024.4 1024.3 0.0
 
Date/Time
WST
Temp
°C
App
Temp
°C
Dew
Point
Rel
Hum
%
Delta-T
°C
Wind Press
QNH
hPa
Press
MSL
hPa
Rain
since 9 am
mm
Dir
 
Spd
km/h
Gust
km/h
Spd
kts
Gust
kts
26/11:30pm 11.5 9.8 6.0 69 2.6 NE 4 7 2 4 1024.4 1024.3 0.0
26/11:00pm 11.0 10.0 5.7 70 2.4 CALM 0 0 0 0 1024.5 1024.4 0.0
26/10:30pm 11.8 10.9 6.1 68 2.7 CALM 0 0 0 0 1024.5 1024.4 0.0
26/10:00pm 12.6 11.9 7.1 69 2.6 CALM 0 0 0 0 1024.6 1024.5 0.0
26/09:30pm 13.6 12.7 6.2 61 3.5 CALM 0 0 0 0 1024.6 1024.5 0.0
26/09:00pm 13.9 12.8 5.3 56 4.0 CALM 0 0 0 0 1024.6 1024.5 0.0
26/08:30pm 14.6 13.1 5.1 53 4.5 NE 2 6 1 3 1024.5 1024.4 0.0
26/08:00pm 15.1 14.0 5.3 52 4.6 CALM 0 4 0 2 1024.5 1024.4 0.0
26/07:30pm 16.5 15.0 5.2 47 5.4 NE 2 6 1 3 1024.3 1024.2 0.0
26/07:00pm 17.9 15.9 4.5 41 6.3 NE 4 7 2 4 1024.0 1023.9 0.0
26/06:30pm 19.0 17.3 4.0 37 7.1 NE 2 7 1 4 1023.6 1023.5 0.0
26/06:00pm 20.9 18.3 4.0 33 8.1 ENE 7 13 4 7 1023.3 1023.2 0.0
26/05:30pm 21.9 18.4 3.6 30 8.8 ENE 11 24 6 13 1023.0 1022.9 0.0
26/05:00pm 22.8 19.1 4.3 30 9.0 ENE 13 24 7 13 1022.8 1022.7 0.0
26/04:30pm 23.8 20.6 5.2 30 9.4 E 11 20 6 11 1022.7 1022.6 0.0
26/04:00pm 24.1 20.8 4.5 28 9.7 E 11 19 6 10 1022.6 1022.5 0.0
26/03:30pm 24.3 20.6 4.6 28 9.8 ENE 13 20 7 11 1022.6 1022.5 0.0
26/03:00pm 24.6 21.5 5.4 29 9.7 E 11 19 6 10 1022.5 1022.4 0.0
26/02:30pm 24.6 21.9 5.4 29 9.7 ENE 9 17 5 9 1022.6 1022.5 0.0
26/02:00pm 24.0 20.6 5.8 31 9.2 ENE 13 20 7 11 1022.7 1022.6 0.0
26/01:30pm 24.1 21.6 6.4 32 9.1 ENE 9 17 5 9 1023.0 1022.9 0.0
26/01:00pm 22.9 19.5 5.8 33 8.6 NE 13 24 7 13 1023.4 1023.3 0.0
26/12:30pm 22.3 18.9 5.7 34 8.3 E 13 28 7 15 1023.8 1023.7 0.0
26/12:00pm 22.0 17.4 5.8 35 8.1 NE 19 30 10 16 1024.6 1024.5 0.0
26/11:30am 21.8 18.4 6.1 36 7.9 ENE 13 20 7 11 1025.0 1024.9 0.0
26/11:00am 21.2 18.0 6.7 39 7.3 ENE 13 26 7 14 1025.3 1025.2 0.0
26/10:30am 20.2 16.5 6.2 40 7.0 NE 15 24 8 13 1025.6 1025.5 0.0
26/10:00am 19.9 17.1 7.0 43 6.5 ENE 11 22 6 12 1025.8 1025.7 0.0
26/09:30am 18.1 15.2 6.6 47 5.7 E 11 26 6 14 1026.0 1025.9 0.0
26/09:00am 17.0 14.5 6.5 50 5.1 E 9 19 5 10 1026.2 1026.1 0.0
26/08:30am 15.5 13.4 6.8 56 4.3 E 7 13 4 7 1026.3 1026.2 0.0
26/08:00am 14.1 11.6 6.5 60 3.6 E 9 17 5 9 1026.1 1026.0 0.0
26/07:30am 12.4 9.4 5.8 64 3.1 E 11 20 6 11 1025.7 1025.6 0.0
26/07:00am 12.2 9.1 5.6 64 3.1 E 11 24 6 13 1025.4 1025.3 0.0
26/06:30am 12.1 9.0 5.5 64 3.1 E 11 20 6 11 1025.2 1025.1 0.0
26/06:00am 12.2 9.1 5.4 63 3.1 E 11 19 6 10 1025.0 1024.9 0.0
26/05:30am 11.6 9.3 5.5 66 2.8 ENE 7 13 4 7 1024.9 1024.8 0.0
26/05:00am 11.7 9.6 5.6 66 2.8 ENE 6 9 3 5 1024.8 1024.7 0.0
26/04:30am 11.6 9.4 5.5 66 2.8 ENE 6 9 3 5 1024.8 1024.7 0.0
26/04:00am 12.3 10.1 5.5 63 3.1 ENE 6 9 3 5 1024.6 1024.5 0.0
26/03:30am 13.3 10.6 5.5 59 3.7 E 9 15 5 8 1024.6 1024.5 0.0
26/03:00am 13.8 11.1 5.7 58 3.8 E 9 19 5 10 1024.7 1024.6 0.0
26/02:30am 14.3 11.6 5.7 56 4.1 E 9 17 5 9 1024.6 1024.5 0.0
26/02:00am 14.8 12.1 5.6 54 4.4 E 9 17 5 9 1024.7 1024.6 0.0
26/01:30am 15.1 12.4 5.6 53 4.5 ESE 9 17 5 9 1024.6 1024.5 0.0
26/01:00am 15.5 12.4 5.7 52 4.7 E 11 20 6 11 1024.6 1024.5 0.0
26/12:30am 15.4 12.8 5.9 53 4.6 E 9 19 5 10 1024.6 1024.5 0.0
26/12:00am 15.9 12.9 5.8 51 4.8 E 11 22 6 12 1024.5 1024.4 0.0
 
Date/Time
WST
Temp
°C
App
Temp
°C
Dew
Point
Rel
Hum
%
Delta-T
°C
Wind Press
QNH
hPa
Press
MSL
hPa
Rain
since 9 am
mm
Dir
 
Spd
km/h
Gust
km/h
Spd
kts
Gust
kts
25/11:30pm 16.0 13.0 5.9 51 4.9 ESE 11 24 6 13 1024.8 1024.7 0.0
25/11:00pm 16.0 13.0 5.9 51 4.8 E 11 24 6 13 1024.9 1024.8 0.0
25/10:30pm 15.5 13.1 5.4 51 4.8 E 7 13 4 7 1024.9 1024.8 0.0
25/10:00pm 15.6 13.1 4.9 49 5.0 ESE 7 13 4 7 1024.9 1024.8 0.0
25/09:30pm 14.5 12.1 4.5 51 4.6 ENE 6 9 3 5 1024.8 1024.7 0.0
25/09:00pm 14.0 11.8 5.1 55 4.1 ENE 6 9 3 5 1024.7 1024.6 0.0
25/08:30pm 14.1 12.7 5.5 56 4.1 ENE 2 11 1 6 1024.5 1024.4 0.0
25/08:00pm 14.9 13.0 5.1 52 4.6 ENE 4 7 2 4 1024.4 1024.3 0.0
25/07:30pm 16.2 14.0 5.2 48 5.2 ENE 6 9 3 5 1024.1 1024.0 0.0
25/07:00pm 16.8 14.4 4.5 44 5.8 ENE 6 9 3 5 1023.9 1023.8 0.0
25/06:30pm 18.7 16.6 3.7 37 7.1 ENE 4 11 2 6 1023.8 1023.7 0.0
25/06:00pm 19.9 16.8 3.6 34 7.7 E 9 17 5 9 1023.3 1023.2 0.0
25/05:30pm 20.8 17.6 3.1 31 8.4 ENE 9 20 5 11 1023.1 1023.0 0.0
25/05:00pm 21.7 18.4 4.3 32 8.4 E 11 19 6 10 1022.9 1022.8 0.0
25/04:30pm 22.5 19.0 3.6 29 9.1 ENE 11 28 6 15 1022.7 1022.6 0.0
25/04:00pm 22.4 18.5 3.5 29 9.1 E 13 20 7 11 1022.7 1022.6 0.0
25/03:30pm 22.3 18.2 4.4 31 8.8 ENE 15 28 8 15 1022.8 1022.7 0.0
25/03:00pm 22.1 18.4 4.2 31 8.7 ENE 13 22 7 12 1022.8 1022.7 0.0

Other Formats:

Comma delimited format used in spreadsheet applications
http://www.bom.gov.au/fwo/IDW60801/IDW60801.94608.axf

JavaScript Object Notation format (JSON) in row-major order
http://www.bom.gov.au/fwo/IDW60801/IDW60801.94608.json